createdAt,value
2023-04-30T00:00:47.438Z,8.20
2023-04-30T00:03:14.098Z,8.20
2023-04-30T00:05:40.793Z,8.20
2023-04-30T00:08:07.363Z,8.20
2023-04-30T00:10:34.132Z,8.10
2023-04-30T00:13:00.677Z,8.10
2023-04-30T00:15:27.241Z,8.10
2023-04-30T00:17:53.829Z,8.10
2023-04-30T00:20:20.570Z,8.00
2023-04-30T00:22:47.133Z,8.00
2023-04-30T00:25:13.736Z,8.00
2023-04-30T00:27:40.975Z,7.90
2023-04-30T00:30:08.223Z,7.90
2023-04-30T00:32:34.822Z,7.90
2023-04-30T00:35:01.431Z,7.90
2023-04-30T00:37:27.963Z,8.00
2023-04-30T00:39:54.821Z,8.00
2023-04-30T00:42:21.526Z,8.00
2023-04-30T00:44:48.117Z,8.00
2023-04-30T00:47:14.733Z,7.90
2023-04-30T00:49:41.490Z,7.80
2023-04-30T00:52:08.113Z,7.70
2023-04-30T00:54:34.777Z,7.70
2023-04-30T00:57:02.795Z,7.80
2023-04-30T00:59:30.192Z,7.70
2023-04-30T01:01:56.896Z,7.50
2023-04-30T01:04:24.082Z,7.50
2023-04-30T01:06:51.908Z,7.50
2023-04-30T01:09:18.721Z,7.50
2023-04-30T01:12:10.003Z,7.50
2023-04-30T01:14:51.814Z,7.40
2023-04-30T01:17:30.449Z,7.40
2023-04-30T01:19:57.733Z,7.40
2023-04-30T01:22:27.486Z,7.50
2023-04-30T01:25:03.524Z,7.50
2023-04-30T01:27:48.725Z,7.50
2023-04-30T01:30:17.023Z,7.40
2023-04-30T01:32:43.701Z,7.20
2023-04-30T01:35:10.577Z,7.10
2023-04-30T01:37:56.995Z,7.40
2023-04-30T01:40:29.389Z,7.40
2023-04-30T01:43:19.825Z,7.10
2023-04-30T01:45:55.618Z,7.00
2023-04-30T01:48:37.292Z,7.00
2023-04-30T01:51:30.634Z,6.90
2023-04-30T01:54:00.901Z,6.80
2023-04-30T01:56:41.355Z,6.90
2023-04-30T01:59:09.079Z,6.80
2023-04-30T02:01:36.886Z,6.90
2023-04-30T02:04:04.216Z,6.80
2023-04-30T02:06:31.254Z,6.80
2023-04-30T02:09:06.132Z,6.80
2023-04-30T02:11:32.690Z,6.70
2023-04-30T02:13:59.283Z,6.70
2023-04-30T02:16:25.925Z,6.80
2023-04-30T02:18:52.555Z,6.80
2023-04-30T02:21:20.250Z,6.70
2023-04-30T02:23:47.230Z,6.70
2023-04-30T02:26:13.869Z,6.60
2023-04-30T02:28:40.508Z,6.60
2023-04-30T02:31:07.134Z,6.60
2023-04-30T02:33:33.707Z,6.50
2023-04-30T02:36:00.842Z,6.50
2023-04-30T02:38:27.548Z,6.40
2023-04-30T02:40:54.254Z,6.40
2023-04-30T02:43:20.921Z,6.40
2023-04-30T02:45:47.796Z,6.40
2023-04-30T02:48:15.121Z,6.50
2023-04-30T02:50:41.641Z,6.40
2023-04-30T02:53:08.185Z,6.50
2023-04-30T02:55:34.710Z,6.50
2023-04-30T02:58:01.285Z,6.50
2023-04-30T03:00:27.822Z,6.50
2023-04-30T03:02:54.493Z,6.50
2023-04-30T03:05:21.399Z,6.40
2023-04-30T03:07:48.052Z,6.40
2023-04-30T03:10:14.658Z,6.40
2023-04-30T03:12:41.210Z,6.40
2023-04-30T03:15:08.460Z,6.40
2023-04-30T03:17:35.618Z,6.30
2023-04-30T03:20:02.381Z,6.30
2023-04-30T03:22:28.949Z,6.40
2023-04-30T03:24:55.494Z,6.50
2023-04-30T03:27:22.660Z,6.40
2023-04-30T03:29:49.202Z,6.40
2023-04-30T03:32:15.752Z,6.40
2023-04-30T03:34:42.331Z,6.40
2023-04-30T03:37:08.926Z,6.40
2023-04-30T03:39:35.503Z,6.40
2023-04-30T03:42:03.698Z,6.40
2023-04-30T03:44:30.243Z,6.10
2023-04-30T03:46:56.968Z,6.40
2023-04-30T03:49:23.605Z,6.30
2023-04-30T03:51:50.256Z,6.50
2023-04-30T03:54:16.796Z,6.40
2023-04-30T03:56:44.299Z,6.50
2023-04-30T03:59:10.955Z,6.40
2023-04-30T04:01:37.577Z,6.50
2023-04-30T04:04:04.395Z,6.70
2023-04-30T04:06:31.714Z,6.50
2023-04-30T04:08:58.405Z,6.60
2023-04-30T04:11:25.296Z,6.60
2023-04-30T04:13:51.844Z,6.50
2023-04-30T04:16:18.457Z,6.50
2023-04-30T04:18:45.186Z,6.40
2023-04-30T04:21:11.909Z,6.40
2023-04-30T04:23:38.469Z,6.50
2023-04-30T04:26:05.091Z,6.40
2023-04-30T04:30:59.569Z,6.40
2023-04-30T04:33:26.187Z,6.40
2023-04-30T04:35:52.877Z,6.40
2023-04-30T04:38:19.460Z,6.40
2023-04-30T04:40:55.676Z,6.30
2023-04-30T04:43:22.428Z,6.40
2023-04-30T04:45:49.087Z,6.40
2023-04-30T04:48:15.933Z,6.40
2023-04-30T04:50:42.496Z,6.50
2023-04-30T04:53:09.182Z,6.50
2023-04-30T04:55:36.129Z,6.50
2023-04-30T04:58:02.743Z,6.70
2023-04-30T05:00:29.772Z,6.60
2023-04-30T05:02:56.661Z,6.80
2023-04-30T05:05:23.329Z,6.80
2023-04-30T05:07:52.265Z,6.90
2023-04-30T05:10:18.866Z,7.10
2023-04-30T05:12:45.487Z,7.10
2023-04-30T05:15:12.056Z,7.10
2023-04-30T05:17:38.672Z,7.10
2023-04-30T05:20:07.429Z,7.30
2023-04-30T05:22:37.116Z,7.30
2023-04-30T05:25:04.191Z,7.50
2023-04-30T05:27:30.769Z,7.60
2023-04-30T05:29:57.528Z,7.60
2023-04-30T05:32:24.211Z,7.70
2023-04-30T05:34:50.813Z,7.80
2023-04-30T05:37:19.337Z,8.00
2023-04-30T05:39:46.461Z,8.10
2023-04-30T05:42:13.006Z,8.30
2023-04-30T05:44:40.319Z,8.30
2023-04-30T05:47:07.318Z,8.40
2023-04-30T05:49:35.784Z,8.70
2023-04-30T05:52:03.606Z,8.80
2023-04-30T05:54:31.011Z,8.90
2023-04-30T05:56:57.633Z,9.00
2023-04-30T05:59:24.388Z,9.10
2023-04-30T06:01:50.995Z,9.30
2023-04-30T06:04:17.640Z,9.30
2023-04-30T06:06:44.326Z,9.50
2023-04-30T06:09:11.523Z,9.60
2023-04-30T06:11:38.297Z,9.50
2023-04-30T06:14:06.027Z,9.60
2023-04-30T06:16:32.671Z,9.70
2023-04-30T06:18:59.273Z,10.10
2023-04-30T06:21:26.062Z,10.10
2023-04-30T06:23:53.034Z,10.10
2023-04-30T06:26:20.019Z,10.20
2023-04-30T06:28:46.937Z,10.30
2023-04-30T06:31:13.605Z,10.20
2023-04-30T06:33:40.296Z,10.10
2023-04-30T06:36:06.948Z,10.20
2023-04-30T06:38:33.495Z,10.70
2023-04-30T06:41:00.189Z,10.80
2023-04-30T06:43:26.734Z,10.90
2023-04-30T06:45:53.325Z,11.00
2023-04-30T06:48:20.217Z,11.10
2023-04-30T06:50:46.838Z,11.20
2023-04-30T06:53:14.111Z,11.20
2023-04-30T06:55:46.469Z,11.00
2023-04-30T06:58:13.170Z,11.00
2023-04-30T07:00:39.896Z,11.30
2023-04-30T07:03:06.649Z,11.10
2023-04-30T07:05:33.485Z,11.30
2023-04-30T07:08:02.075Z,11.30
2023-04-30T07:10:28.831Z,11.40
2023-04-30T07:12:55.542Z,11.50
2023-04-30T07:15:22.356Z,11.60
2023-04-30T07:17:48.921Z,11.50
2023-04-30T07:20:15.808Z,11.60
2023-04-30T07:22:44.521Z,11.90
2023-04-30T07:25:11.577Z,12.00
2023-04-30T07:27:38.562Z,11.90
2023-04-30T07:30:05.782Z,12.00
2023-04-30T07:32:32.449Z,12.20
2023-04-30T07:34:59.263Z,12.30
2023-04-30T07:37:25.847Z,12.30
2023-04-30T07:39:52.551Z,12.50
2023-04-30T07:42:19.279Z,12.70
2023-04-30T07:44:46.161Z,13.00
2023-04-30T07:47:12.732Z,13.10
2023-04-30T07:49:39.314Z,13.30
2023-04-30T07:52:06.163Z,13.20
2023-04-30T07:54:36.309Z,13.70
2023-04-30T07:57:03.529Z,14.50
2023-04-30T07:59:30.139Z,16.00
2023-04-30T08:01:56.784Z,16.70
2023-04-30T08:04:23.456Z,17.50
2023-04-30T08:06:50.458Z,17.30
2023-04-30T08:09:17.161Z,16.70
2023-04-30T08:11:43.777Z,16.70
2023-04-30T08:14:10.435Z,16.80
2023-04-30T08:16:37.129Z,16.40
2023-04-30T08:19:04.991Z,16.50
2023-04-30T08:21:31.714Z,16.80
2023-04-30T08:23:58.295Z,17.60
2023-04-30T08:26:26.230Z,18.00
2023-04-30T08:28:52.926Z,18.70
2023-04-30T08:31:19.658Z,19.70
2023-04-30T08:33:46.293Z,20.60
2023-04-30T08:36:12.882Z,21.10
2023-04-30T08:38:39.396Z,21.60
2023-04-30T08:41:14.037Z,22.10
2023-04-30T08:43:41.695Z,21.70
2023-04-30T08:46:08.669Z,22.40
2023-04-30T08:48:35.497Z,22.70
2023-04-30T08:51:03.325Z,23.00
2023-04-30T08:53:31.420Z,22.60
2023-04-30T08:55:58.705Z,22.60
2023-04-30T08:58:25.460Z,22.60
2023-04-30T09:00:52.036Z,23.10
2023-04-30T09:03:18.973Z,23.30
2023-04-30T09:05:46.024Z,23.90
2023-04-30T09:08:18.585Z,24.20
2023-04-30T09:10:45.404Z,24.50
2023-04-30T09:13:12.162Z,24.70
2023-04-30T09:15:45.681Z,25.00
2023-04-30T09:18:21.059Z,24.70
2023-04-30T09:21:00.663Z,24.70
2023-04-30T09:23:27.617Z,25.10
2023-04-30T09:25:54.262Z,24.90
2023-04-30T09:28:25.266Z,25.70
2023-04-30T09:30:52.610Z,26.30
2023-04-30T09:33:20.200Z,26.20
2023-04-30T09:35:46.814Z,25.40
2023-04-30T09:38:32.978Z,25.40
2023-04-30T09:41:01.173Z,26.10
2023-04-30T09:43:28.755Z,23.10
2023-04-30T09:45:57.427Z,20.50
2023-04-30T09:48:25.366Z,19.70
2023-04-30T09:50:52.479Z,19.10
2023-04-30T09:53:20.061Z,19.40
2023-04-30T09:55:49.316Z,19.60
2023-04-30T09:58:17.689Z,19.40
2023-04-30T10:00:46.869Z,19.80
2023-04-30T10:03:14.884Z,19.90
2023-04-30T10:05:46.838Z,19.90
2023-04-30T10:08:41.662Z,19.80
2023-04-30T10:11:09.400Z,19.80
2023-04-30T10:13:44.719Z,19.90
2023-04-30T10:16:37.579Z,19.90
2023-04-30T10:19:09.945Z,20.50
2023-04-30T10:21:40.500Z,20.50
2023-04-30T10:24:09.611Z,20.40
2023-04-30T10:26:36.617Z,20.30
2023-04-30T10:29:05.569Z,20.10
2023-04-30T10:31:32.772Z,20.20
2023-04-30T10:34:06.032Z,20.30
2023-04-30T10:36:48.888Z,20.10
2023-04-30T10:39:21.060Z,20.10
2023-04-30T10:41:48.812Z,20.00
2023-04-30T10:44:22.592Z,20.40
2023-04-30T10:46:49.270Z,20.70
2023-04-30T10:49:15.975Z,20.70
2023-04-30T10:51:48.125Z,20.50
2023-04-30T10:54:17.736Z,20.30
2023-04-30T10:56:45.941Z,20.40
2023-04-30T10:59:12.831Z,20.50
2023-04-30T11:01:58.134Z,20.10
2023-04-30T11:04:25.401Z,20.20
2023-04-30T11:07:08.456Z,20.60
2023-04-30T11:09:43.943Z,20.70
2023-04-30T11:12:28.445Z,20.80
2023-04-30T11:15:06.201Z,20.60
2023-04-30T11:17:33.770Z,20.70
2023-04-30T11:20:02.128Z,20.70
2023-04-30T11:22:35.976Z,20.70
2023-04-30T11:25:07.165Z,20.80
2023-04-30T11:27:35.116Z,20.80
2023-04-30T11:30:02.206Z,20.90
2023-04-30T11:32:34.004Z,21.20
2023-04-30T11:35:01.873Z,21.30
2023-04-30T11:37:35.211Z,21.30
2023-04-30T11:40:03.863Z,21.20
2023-04-30T11:42:31.288Z,20.70
2023-04-30T11:45:10.845Z,20.30
2023-04-30T11:47:41.297Z,20.40
2023-04-30T11:50:08.980Z,20.80
2023-04-30T11:52:36.081Z,21.10
2023-04-30T11:55:05.408Z,21.40
2023-04-30T11:57:35.607Z,21.10
2023-04-30T12:00:10.005Z,21.20
2023-04-30T12:02:36.603Z,20.90
2023-04-30T12:05:03.843Z,20.90
2023-04-30T12:07:30.371Z,21.10
2023-04-30T12:09:57.378Z,21.30
2023-04-30T12:12:27.961Z,21.70
2023-04-30T12:14:54.537Z,21.80
2023-04-30T12:17:33.888Z,21.70
2023-04-30T12:20:00.696Z,21.70
2023-04-30T12:22:27.523Z,21.70
2023-04-30T12:24:54.867Z,21.90
2023-04-30T12:27:22.299Z,21.80
2023-04-30T12:29:50.722Z,21.80
2023-04-30T12:32:21.990Z,21.70
2023-04-30T12:34:48.749Z,22.10
2023-04-30T12:37:16.736Z,21.40
2023-04-30T12:39:43.467Z,21.20
2023-04-30T12:42:10.224Z,21.30
2023-04-30T12:44:44.684Z,23.00
2023-04-30T12:47:11.524Z,22.70
2023-04-30T12:49:38.290Z,22.70
2023-04-30T12:52:13.460Z,21.10
2023-04-30T12:54:40.248Z,20.60
2023-04-30T12:57:09.254Z,20.50
2023-04-30T12:59:56.019Z,21.40
2023-04-30T13:02:24.537Z,22.10
2023-04-30T13:04:51.652Z,22.10
2023-04-30T13:07:18.280Z,22.10
2023-04-30T13:09:44.955Z,21.80
2023-04-30T13:12:11.974Z,21.50
2023-04-30T13:14:38.553Z,21.30
2023-04-30T13:17:07.183Z,20.70
2023-04-30T13:19:34.746Z,20.30
2023-04-30T13:22:01.745Z,21.30
2023-04-30T13:24:28.350Z,21.70
2023-04-30T13:26:54.964Z,22.10
2023-04-30T13:29:21.610Z,22.60
2023-04-30T13:31:49.129Z,22.40
2023-04-30T13:34:15.949Z,22.60
2023-04-30T13:36:42.592Z,22.80
2023-04-30T13:39:09.196Z,22.90
2023-04-30T13:41:35.777Z,22.70
2023-04-30T13:44:02.899Z,22.60
2023-04-30T13:46:30.214Z,22.70
2023-04-30T13:48:56.960Z,23.10
2023-04-30T13:51:23.600Z,22.90
2023-04-30T13:53:50.361Z,23.00
2023-04-30T13:56:17.055Z,23.20
2023-04-30T13:58:44.023Z,23.10
2023-04-30T14:01:10.664Z,22.80
2023-04-30T14:03:37.553Z,23.10
2023-04-30T14:06:05.715Z,23.10
2023-04-30T14:08:33.593Z,23.40
2023-04-30T14:11:00.307Z,23.30
2023-04-30T14:13:26.861Z,22.90
2023-04-30T14:15:54.591Z,22.30
2023-04-30T14:18:22.668Z,22.20
2023-04-30T14:20:49.618Z,22.20
2023-04-30T14:23:16.264Z,22.10
2023-04-30T14:25:42.859Z,21.90
2023-04-30T14:28:09.458Z,22.00
2023-04-30T14:30:36.448Z,22.40
2023-04-30T14:33:03.197Z,22.60
2023-04-30T14:35:30.171Z,22.40
2023-04-30T14:37:56.776Z,21.80
2023-04-30T14:40:23.386Z,20.70
2023-04-30T14:42:50.444Z,20.30
2023-04-30T14:45:17.010Z,20.00
2023-04-30T14:47:43.853Z,20.20
2023-04-30T14:50:10.824Z,20.70
2023-04-30T14:52:38.385Z,20.90
2023-04-30T14:55:05.480Z,21.40
2023-04-30T14:57:33.485Z,21.60
2023-04-30T15:00:00.880Z,20.90
2023-04-30T15:02:27.683Z,20.30
2023-04-30T15:04:54.335Z,19.80
2023-04-30T15:07:21.066Z,20.20
2023-04-30T15:09:47.642Z,20.40
2023-04-30T15:12:14.333Z,20.60
2023-04-30T15:14:41.510Z,20.40
2023-04-30T15:17:08.418Z,20.30
2023-04-30T15:19:35.087Z,20.30
2023-04-30T15:22:01.668Z,20.30
2023-04-30T15:24:28.251Z,20.10
2023-04-30T15:26:55.069Z,20.40
2023-04-30T15:29:21.717Z,20.50
2023-04-30T15:31:51.750Z,20.20
2023-04-30T15:34:18.546Z,20.00
2023-04-30T15:36:45.327Z,19.60
2023-04-30T15:39:12.140Z,19.60
2023-04-30T15:41:38.805Z,19.80
2023-04-30T15:44:05.383Z,20.00
2023-04-30T15:46:33.551Z,19.60
2023-04-30T15:49:00.906Z,19.30
2023-04-30T15:51:29.273Z,19.10
2023-04-30T15:53:56.344Z,19.50
2023-04-30T15:56:25.631Z,19.70
2023-04-30T15:58:55.799Z,19.80
2023-04-30T16:01:23.372Z,19.80
2023-04-30T16:03:50.279Z,20.10
2023-04-30T16:06:17.705Z,20.10
2023-04-30T16:08:45.854Z,20.00
2023-04-30T16:11:12.586Z,20.10
2023-04-30T16:13:39.302Z,20.10
2023-04-30T16:16:08.445Z,20.20
2023-04-30T16:18:35.211Z,20.20
2023-04-30T16:21:01.931Z,19.90
2023-04-30T16:23:28.480Z,19.90
2023-04-30T16:25:56.269Z,19.90
2023-04-30T16:28:23.449Z,19.80
2023-04-30T16:30:50.230Z,19.70
2023-04-30T16:33:16.834Z,19.80
2023-04-30T16:35:43.597Z,19.60
2023-04-30T16:38:10.218Z,19.50
2023-04-30T16:40:36.790Z,19.20
2023-04-30T16:43:03.414Z,19.10
2023-04-30T16:45:30.254Z,19.10
2023-04-30T16:47:57.077Z,19.10
2023-04-30T16:50:25.290Z,18.90
2023-04-30T16:52:51.842Z,19.00
2023-04-30T16:55:18.423Z,18.90
2023-04-30T16:57:45.313Z,18.90
2023-04-30T17:00:14.250Z,18.80
2023-04-30T17:02:42.350Z,18.70
2023-04-30T17:05:10.438Z,18.50
2023-04-30T17:07:37.716Z,18.50
2023-04-30T17:10:08.048Z,18.50
2023-04-30T17:12:34.629Z,18.50
2023-04-30T17:15:01.261Z,18.50
2023-04-30T17:17:28.272Z,18.40
2023-04-30T17:19:55.078Z,18.30
2023-04-30T17:22:21.895Z,18.10
2023-04-30T17:24:48.492Z,18.10
2023-04-30T17:27:15.704Z,18.00
2023-04-30T17:29:42.423Z,17.80
2023-04-30T17:32:10.445Z,17.70
2023-04-30T17:34:38.177Z,17.60
2023-04-30T17:37:04.759Z,17.50
2023-04-30T17:39:32.462Z,17.40
2023-04-30T17:41:59.422Z,17.40
2023-04-30T17:44:26.094Z,17.40
2023-04-30T17:46:53.740Z,17.50
2023-04-30T17:49:20.339Z,17.40
2023-04-30T17:51:48.179Z,17.20
2023-04-30T17:54:14.801Z,17.20
2023-04-30T17:56:41.447Z,17.10
2023-04-30T17:59:08.287Z,17.00
2023-04-30T18:01:34.881Z,17.00
2023-04-30T18:04:01.797Z,16.90
2023-04-30T18:06:28.539Z,16.90
2023-04-30T18:08:55.469Z,16.80
2023-04-30T18:11:22.068Z,16.80
2023-04-30T18:13:48.606Z,16.70
2023-04-30T18:16:15.208Z,16.50
2023-04-30T18:18:41.782Z,16.50
2023-04-30T18:21:11.454Z,16.40
2023-04-30T18:23:38.103Z,16.30
2023-04-30T18:26:04.903Z,16.40
2023-04-30T18:28:31.936Z,16.20
2023-04-30T18:30:58.511Z,16.20
2023-04-30T18:33:25.077Z,16.10
2023-04-30T18:35:52.226Z,16.10
2023-04-30T18:38:18.815Z,16.00
2023-04-30T18:40:45.372Z,15.80
2023-04-30T18:43:13.047Z,15.70
2023-04-30T18:45:39.633Z,15.80
2023-04-30T18:48:06.528Z,15.70
2023-04-30T18:50:33.253Z,15.60
2023-04-30T18:52:59.799Z,15.50
2023-04-30T18:55:26.396Z,15.40
2023-04-30T18:57:56.093Z,15.30
2023-04-30T19:00:23.064Z,16.50
2023-04-30T19:02:49.674Z,15.10
2023-04-30T19:05:16.422Z,15.00
2023-04-30T19:07:43.122Z,15.00
2023-04-30T19:10:10.006Z,14.90
2023-04-30T19:12:36.840Z,14.80
2023-04-30T19:15:03.636Z,14.80
2023-04-30T19:17:30.245Z,14.80
2023-04-30T19:20:00.182Z,14.70
2023-04-30T19:22:26.753Z,14.70
2023-04-30T19:24:53.327Z,14.60
2023-04-30T19:27:20.006Z,14.50
2023-04-30T19:29:46.762Z,14.40
2023-04-30T19:32:13.471Z,14.30
2023-04-30T19:34:40.428Z,14.30
2023-04-30T19:37:07.059Z,14.30
2023-04-30T19:39:36.369Z,14.00
2023-04-30T19:42:03.608Z,14.00
2023-04-30T19:44:30.709Z,13.90
2023-04-30T19:46:58.000Z,13.90
2023-04-30T19:49:26.222Z,13.80
2023-04-30T19:51:54.131Z,13.80
2023-04-30T19:54:20.828Z,13.70
2023-04-30T19:56:47.585Z,13.60
2023-04-30T19:59:14.380Z,13.60
2023-04-30T20:01:41.970Z,13.50
2023-04-30T20:04:08.782Z,13.50
2023-04-30T20:06:35.476Z,13.50
2023-04-30T20:09:02.363Z,13.40
2023-04-30T20:11:28.998Z,13.30
2023-04-30T20:13:56.284Z,13.30
2023-04-30T20:16:23.146Z,13.30
2023-04-30T20:18:49.835Z,13.40
2023-04-30T20:21:17.101Z,13.30
2023-04-30T20:23:44.673Z,13.20
2023-04-30T20:26:11.359Z,13.20
2023-04-30T20:28:38.524Z,13.10
2023-04-30T20:31:06.805Z,13.00
2023-04-30T20:33:33.540Z,13.00
2023-04-30T20:36:00.277Z,13.10
2023-04-30T20:38:26.880Z,13.00
2023-04-30T20:40:53.476Z,13.00
2023-04-30T20:43:20.034Z,12.90
2023-04-30T20:45:47.482Z,13.00
2023-04-30T20:48:14.415Z,12.80
2023-04-30T20:50:41.267Z,12.90
2023-04-30T20:53:09.670Z,13.00
2023-04-30T20:55:37.698Z,13.00
2023-04-30T20:58:04.233Z,13.00
2023-04-30T21:00:30.813Z,13.00
2023-04-30T21:02:57.510Z,12.90
2023-04-30T21:05:24.358Z,12.90
2023-04-30T21:07:52.216Z,12.80
2023-04-30T21:10:18.897Z,12.80
2023-04-30T21:12:45.550Z,12.80
2023-04-30T21:15:12.839Z,12.80
2023-04-30T21:17:39.474Z,12.70
2023-04-30T21:20:06.758Z,12.70
2023-04-30T21:22:33.759Z,12.70
2023-04-30T21:25:00.395Z,12.70
2023-04-30T21:27:27.942Z,12.70
2023-04-30T21:29:54.860Z,12.70
2023-04-30T21:32:21.831Z,12.60
2023-04-30T21:34:48.424Z,12.60
2023-04-30T21:37:17.147Z,12.50
2023-04-30T21:39:44.078Z,12.50
2023-04-30T21:42:10.702Z,12.50
2023-04-30T21:44:37.353Z,12.60
2023-04-30T21:47:04.000Z,12.60
2023-04-30T21:49:31.201Z,12.60
2023-04-30T21:51:57.984Z,12.50
2023-04-30T21:54:24.673Z,12.50
2023-04-30T21:56:51.353Z,12.50
2023-04-30T21:59:17.959Z,12.40
2023-04-30T22:01:44.521Z,12.40
2023-04-30T22:04:11.233Z,12.40
2023-04-30T22:06:38.041Z,12.40
2023-04-30T22:09:04.638Z,12.30
2023-04-30T22:11:31.253Z,12.30
2023-04-30T22:13:58.689Z,12.30
2023-04-30T22:16:25.420Z,12.30
2023-04-30T22:18:52.041Z,12.20
2023-04-30T22:21:18.599Z,12.20
2023-04-30T22:23:45.280Z,12.10
2023-04-30T22:26:11.922Z,12.10
2023-04-30T22:28:38.562Z,12.20
2023-04-30T22:31:05.322Z,12.20
2023-04-30T22:33:36.301Z,12.10
2023-04-30T22:36:06.377Z,12.00
2023-04-30T22:38:33.632Z,12.10
2023-04-30T22:41:00.568Z,12.20
2023-04-30T22:43:30.088Z,12.10
2023-04-30T22:46:01.288Z,12.20
2023-04-30T22:48:28.951Z,12.10
2023-04-30T22:50:56.350Z,12.10
2023-04-30T22:53:23.152Z,12.10
2023-04-30T22:55:50.293Z,12.10
2023-04-30T22:58:17.495Z,12.10
2023-04-30T23:00:44.253Z,12.10
2023-04-30T23:03:11.289Z,12.00
2023-04-30T23:05:37.956Z,12.10
2023-04-30T23:08:04.728Z,11.90
2023-04-30T23:10:31.341Z,11.90
2023-04-30T23:12:58.737Z,11.90
2023-04-30T23:15:25.970Z,11.90
2023-04-30T23:17:54.248Z,11.80
2023-04-30T23:20:22.448Z,11.80
2023-04-30T23:22:49.246Z,11.70
2023-04-30T23:25:18.958Z,11.70
2023-04-30T23:27:45.510Z,11.70
2023-04-30T23:30:14.610Z,11.80
2023-04-30T23:32:41.471Z,11.70
2023-04-30T23:35:08.950Z,11.70
2023-04-30T23:37:35.908Z,11.70
2023-04-30T23:40:07.129Z,11.60
2023-04-30T23:42:36.699Z,11.60
2023-04-30T23:45:03.775Z,11.60
2023-04-30T23:47:30.462Z,11.50
2023-04-30T23:49:57.461Z,11.50
2023-04-30T23:52:24.888Z,11.50
2023-04-30T23:54:52.102Z,11.50
2023-04-30T23:57:18.630Z,11.50
2023-04-30T23:59:45.374Z,11.40
